Time;durP1;ratioP1;P1;durP2;ratioP2;P2;SDS_P1;SDS_P2;PMS_P1;PMS_P2;Temp;Humidity;BMP_temperature;BMP_pressure;BME280_temperature;BME280_humidity;BME280_pressure;Samples;Min_cycle;Max_cycle;Signal;HPM_P1;HPM_P2
2021/03/08 00:00:36;;;;;;;8.70;3.77;;;5.40;85.80;;;;;;5071599;28;20299;-69
2021/03/08 00:03:04;;;;;;;8.47;2.87;;;5.30;85.70;;;;;;5070172;28;20378;-69
2021/03/08 00:05:31;;;;;;;11.90;3.10;;;5.20;85.70;;;;;;5071665;28;20307;-69
2021/03/08 00:07:56;;;;;;;10.23;3.30;;;5.10;85.90;;;;;;5071308;28;20333;-69
2021/03/08 00:10:22;;;;;;;11.67;3.27;;;5.00;86.20;;;;;;5070497;28;20383;-68
2021/03/08 00:12:49;;;;;;;10.17;2.63;;;5.00;86.50;;;;;;5071161;28;20412;-68
2021/03/08 00:15:15;;;;;;;9.03;3.00;;;5.00;86.40;;;;;;5070998;28;20502;-68
2021/03/08 00:17:41;;;;;;;10.37;3.20;;;5.00;86.90;;;;;;5070559;28;20298;-68
2021/03/08 00:20:12;;;;;;;10.10;3.00;;;5.00;87.00;;;;;;5071268;28;20318;-68
2021/03/08 00:22:39;;;;;;;11.40;3.23;;;5.00;86.80;;;;;;5071527;28;20287;-68
2021/03/08 00:25:10;;;;;;;12.40;2.83;;;5.10;86.50;;;;;;5070436;28;20304;-69
2021/03/08 00:27:36;;;;;;;10.40;3.08;;;5.10;86.50;;;;;;5071371;28;20318;-68
2021/03/08 00:30:04;;;;;;;13.43;3.40;;;5.10;86.50;;;;;;5070661;28;20451;-68
2021/03/08 00:32:31;;;;;;;11.30;3.40;;;5.20;86.60;;;;;;5070911;28;20297;-69
2021/03/08 00:34:57;;;;;;;16.93;3.93;;;5.30;86.50;;;;;;5070981;28;20318;-69
2021/03/08 00:37:26;;;;;;;13.07;3.60;;;5.30;86.50;;;;;;5070782;28;20295;-69
2021/03/08 00:39:52;;;;;;;12.70;3.70;;;5.30;86.50;;;;;;5070354;28;20310;-69
2021/03/08 00:42:17;;;;;;;11.93;3.37;;;5.40;86.30;;;;;;5070838;28;20321;-69
2021/03/08 00:44:43;;;;;;;14.90;4.10;;;5.40;86.10;;;;;;5070107;28;20110;-68
2021/03/08 00:47:09;;;;;;;12.60;3.73;;;5.50;86.00;;;;;;5070912;28;20461;-68
2021/03/08 00:49:34;;;;;;;11.00;3.77;;;5.50;86.00;;;;;;5071140;28;20051;-68
2021/03/08 00:52:00;;;;;;;8.27;3.03;;;5.60;85.70;;;;;;5070125;28;20048;-68
2021/03/08 00:54:26;;;;;;;10.07;3.30;;;5.60;85.70;;;;;;5070775;28;20620;-68
2021/03/08 00:56:52;;;;;;;10.30;3.20;;;5.60;85.80;;;;;;5070722;28;20060;-68
2021/03/08 00:59:17;;;;;;;13.60;4.23;;;5.50;86.00;;;;;;5069947;28;20389;-68
2021/03/08 01:01:43;;;;;;;11.23;4.40;;;5.50;86.00;;;;;;5070753;28;20310;-68
2021/03/08 01:04:08;;;;;;;10.33;4.20;;;5.50;86.20;;;;;;5070765;28;20407;-68
2021/03/08 01:06:34;;;;;;;11.77;4.07;;;5.60;86.30;;;;;;5073301;28;20055;-68
2021/03/08 01:09:00;;;;;;;11.90;4.23;;;5.60;86.30;;;;;;5074264;28;20045;-68
2021/03/08 01:11:25;;;;;;;12.67;4.13;;;5.60;86.20;;;;;;5074039;28;20070;-68
2021/03/08 01:13:51;;;;;;;13.53;3.60;;;5.60;86.10;;;;;;5073786;28;20183;-68
2021/03/08 01:16:16;;;;;;;12.43;4.00;;;5.70;86.10;;;;;;5074173;28;20090;-68
2021/03/08 01:18:42;;;;;;;12.80;3.90;;;5.60;86.10;;;;;;5074223;28;20040;-69
2021/03/08 01:21:08;;;;;;;12.37;3.50;;;5.60;86.20;;;;;;5073357;28;20493;-68
2021/03/08 01:23:33;;;;;;;14.77;3.90;;;5.60;86.20;;;;;;5074217;28;20060;-68
2021/03/08 01:25:59;;;;;;;13.53;4.27;;;5.50;86.20;;;;;;5073897;28;20106;-69
2021/03/08 01:28:26;;;;;;;10.17;3.70;;;5.60;86.30;;;;;;5073077;28;20053;-68
2021/03/08 01:30:52;;;;;;;11.90;3.63;;;5.60;86.30;;;;;;5074276;28;20295;-68
2021/03/08 01:33:18;;;;;;;14.77;3.80;;;5.50;86.30;;;;;;5074228;28;20305;-68
2021/03/08 01:35:44;;;;;;;14.20;3.03;;;5.60;86.50;;;;;;5073175;28;20076;-68
2021/03/08 01:38:09;;;;;;;12.10;3.60;;;5.60;86.40;;;;;;5073599;28;20333;-68
2021/03/08 01:40:38;;;;;;;12.33;3.67;;;5.60;86.10;;;;;;5074017;28;20080;-68
2021/03/08 01:43:04;;;;;;;9.87;2.43;;;5.60;85.80;;;;;;5072980;28;20068;-68
2021/03/08 01:45:30;;;;;;;13.80;3.37;;;5.60;85.80;;;;;;5073935;28;20333;-68
2021/03/08 01:47:57;;;;;;;15.43;4.00;;;5.60;85.80;;;;;;5072768;28;20501;-68
2021/03/08 01:50:38;;;;;;;12.47;2.83;;;5.60;85.70;;;;;;5073539;28;20305;-68
2021/03/08 01:53:06;;;;;;;12.85;3.40;;;5.50;85.80;;;;;;5073483;28;20635;-68
2021/03/08 01:55:32;;;;;;;13.90;2.57;;;5.40;86.00;;;;;;5073049;28;20106;-68
2021/03/08 01:57:58;;;;;;;12.03;2.70;;;5.40;86.10;;;;;;5073375;28;20291;-68
2021/03/08 02:00:26;;;;;;;15.37;3.13;;;5.40;86.10;;;;;;5073482;28;20301;-68
2021/03/08 02:02:53;;;;;;;9.37;2.40;;;5.40;86.10;;;;;;5072398;28;20128;-68
2021/03/08 02:05:25;;;;;;;13.43;2.87;;;5.40;86.00;;;;;;5073257;28;20299;-68
2021/03/08 02:07:51;;;;;;;10.87;2.63;;;5.40;86.10;;;;;;5073118;28;20648;-68
2021/03/08 02:10:18;;;;;;;9.77;2.73;;;5.40;86.00;;;;;;5072225;28;20778;-68
2021/03/08 02:12:46;;;;;;;13.63;3.23;;;5.40;86.00;;;;;;5073160;28;20303;-68
2021/03/08 02:15:36;;;;;;;12.93;2.80;;;5.40;86.20;;;;;;5072960;28;20338;-68
2021/03/08 02:18:15;;;;;;;9.90;2.57;;;5.40;86.30;;;;;;5070949;28;20310;-68
2021/03/08 02:21:06;;;;;;;12.57;3.23;;;5.40;86.30;;;;;;5073132;28;20334;-68
2021/03/08 02:23:59;;;;;;;11.70;2.83;;;5.40;86.20;;;;;;5072568;28;20298;-68
2021/03/08 02:26:26;;;;;;;10.00;2.40;;;5.40;86.20;;;;;;5072668;28;20295;-68
2021/03/08 02:29:02;;;;;;;13.67;2.50;;;5.30;86.10;;;;;;5072977;28;20352;-68
2021/03/08 02:31:31;;;;;;;6.80;3.17;;;5.30;86.20;;;;;;5072318;28;20787;-68
2021/03/08 02:34:05;;;;;;;16.10;3.00;;;5.40;86.10;;;;;;5072672;28;20774;-68
2021/03/08 02:36:38;;;;;;;9.67;2.50;;;5.30;86.10;;;;;;5072928;28;20389;-68
2021/03/08 02:39:14;;;;;;;12.10;2.70;;;5.40;86.00;;;;;;5071680;28;20303;-68
2021/03/08 02:41:42;;;;;;;14.27;3.13;;;5.50;85.70;;;;;;5072629;28;20385;-68
2021/03/08 02:44:13;;;;;;;10.60;2.93;;;5.40;85.40;;;;;;5071775;28;20385;-68
2021/03/08 02:46:43;;;;;;;11.02;2.17;;;5.40;85.50;;;;;;5072622;28;20306;-68
2021/03/08 02:49:15;;;;;;;13.10;2.80;;;5.40;85.60;;;;;;5072425;28;20045;-68
2021/03/08 02:51:48;;;;;;;;;;;5.40;85.60;;;;;;5071928;28;20409;-68
2021/03/08 02:54:18;;;;;;;11.50;2.73;;;5.40;85.70;;;;;;5072415;28;20015;-67
2021/03/08 02:56:46;;;;;;;11.53;2.63;;;5.40;85.70;;;;;;5072313;28;20303;-68
2021/03/08 02:59:13;;;;;;;14.73;3.10;;;5.40;85.60;;;;;;5071501;28;20299;-68
2021/03/08 03:01:42;;;;;;;13.30;4.17;;;5.40;85.60;;;;;;5072151;28;20331;-68
2021/03/08 03:04:09;;;;;;;10.17;2.70;;;5.40;85.60;;;;;;5071771;28;20314;-68
2021/03/08 03:06:37;;;;;;;14.03;3.20;;;5.40;85.60;;;;;;5071517;28;20827;-67
2021/03/08 03:09:06;;;;;;;11.10;2.37;;;5.50;85.60;;;;;;5071916;28;20302;-68
2021/03/08 03:11:33;;;;;;;8.23;2.13;;;5.50;85.60;;;;;;5072392;28;20314;-68
2021/03/08 03:14:00;;;;;;;11.40;3.00;;;5.50;85.50;;;;;;5071278;28;20302;-67
2021/03/08 03:16:28;;;;;;;10.00;2.77;;;5.50;85.40;;;;;;5071769;28;20326;-67
2021/03/08 03:18:55;;;;;;;11.83;3.23;;;5.50;85.20;;;;;;5071999;28;20340;-68
2021/03/08 03:21:26;;;;;;;6.30;2.20;;;5.50;85.10;;;;;;5071172;28;20353;-68
2021/03/08 03:23:53;;;;;;;9.25;2.40;;;5.40;85.10;;;;;;5071851;28;20341;-68
2021/03/08 03:26:21;;;;;;;8.93;2.83;;;5.40;85.20;;;;;;5070809;28;20504;-68
2021/03/08 03:28:48;;;;;;;10.90;2.30;;;5.40;85.30;;;;;;5071440;28;20314;-68
2021/03/08 03:31:15;;;;;;;10.43;2.60;;;5.40;85.50;;;;;;5071564;28;20302;-68
2021/03/08 03:33:42;;;;;;;16.40;3.10;;;5.40;85.20;;;;;;5070728;28;20786;-68
2021/03/08 03:36:08;;;;;;;8.27;2.33;;;5.50;85.20;;;;;;5071583;28;20317;-68
2021/03/08 03:38:35;;;;;;;18.37;3.20;;;5.40;85.10;;;;;;5071665;28;20302;-68
2021/03/08 03:41:02;;;;;;;11.13;2.53;;;5.50;85.10;;;;;;5070851;28;20333;-68
2021/03/08 03:43:28;;;;;;;11.70;3.40;;;5.50;84.90;;;;;;5071684;28;20290;-68
2021/03/08 03:45:53;;;;;;;11.90;2.77;;;5.40;84.80;;;;;;5071606;28;20307;-68
2021/03/08 03:48:19;;;;;;;14.83;3.27;;;5.40;85.00;;;;;;5070870;28;20109;-68
2021/03/08 03:50:45;;;;;;;13.63;2.70;;;5.20;85.30;;;;;;5071453;28;20484;-68
2021/03/08 03:53:10;;;;;;;12.30;3.90;;;5.20;85.50;;;;;;5071446;28;20044;-68
2021/03/08 03:55:36;;;;;;;11.57;3.17;;;5.10;85.90;;;;;;5070858;28;20048;-68
2021/03/08 03:58:08;;;;;;;15.60;3.33;;;5.20;85.80;;;;;;5071003;28;20495;-68
2021/03/08 04:00:41;;;;;;;10.55;2.78;;;5.10;85.70;;;;;;5071782;28;20053;-68
2021/03/08 04:03:10;;;;;;;9.63;2.37;;;5.10;85.70;;;;;;5070704;28;20047;-68
2021/03/08 04:05:41;;;;;;;13.20;2.60;;;5.20;85.50;;;;;;5071491;28;20701;-68
2021/03/08 04:08:10;;;;;;;11.98;2.50;;;5.20;85.30;;;;;;5071224;28;20372;-68
2021/03/08 04:10:37;;;;;;;12.97;3.03;;;5.10;85.20;;;;;;5070651;28;20493;-68
2021/03/08 04:13:08;;;;;;;15.07;3.37;;;5.10;85.50;;;;;;5071226;28;20299;-68
2021/03/08 04:15:34;;;;;;;14.40;2.90;;;5.10;85.70;;;;;;5070779;28;20713;-68
2021/03/08 04:18:01;;;;;;;16.17;3.00;;;5.10;86.10;;;;;;5071113;28;20687;-68
2021/03/08 04:20:29;;;;;;;14.17;3.17;;;5.10;86.00;;;;;;5071469;28;20310;-68
2021/03/08 04:22:58;;;;;;;11.10;2.93;;;5.20;86.00;;;;;;5070271;28;20783;-68
2021/03/08 04:25:24;;;;;;;9.50;3.00;;;5.20;86.00;;;;;;5070919;28;20381;-68
2021/03/08 04:27:51;;;;;;;12.03;3.33;;;5.30;85.90;;;;;;5071198;28;20290;-68
2021/03/08 04:30:18;;;;;;;11.90;3.27;;;5.40;85.90;;;;;;5070212;28;20783;-68
2021/03/08 04:32:50;;;;;;;14.30;2.93;;;5.40;85.60;;;;;;5071045;28;20334;-68
2021/03/08 04:35:18;;;;;;;10.00;3.13;;;5.40;85.50;;;;;;5070893;28;20371;-68
2021/03/08 04:37:46;;;;;;;9.80;2.73;;;5.50;85.40;;;;;;5070017;28;20303;-68
2021/03/08 04:40:14;;;;;;;9.87;2.70;;;5.50;85.60;;;;;;5072077;28;20306;-68
2021/03/08 04:42:41;;;;;;;12.00;2.73;;;5.50;85.60;;;;;;5074877;28;20331;-68
2021/03/08 04:45:09;;;;;;;8.73;2.90;;;5.50;85.60;;;;;;5074132;28;20313;-68
2021/03/08 04:47:35;;;;;;;11.20;3.37;;;5.50;85.40;;;;;;5075026;28;20331;-68
2021/03/08 04:50:03;;;;;;;12.97;3.23;;;5.50;85.60;;;;;;5074607;28;20786;-68
2021/03/08 04:52:29;;;;;;;13.97;3.70;;;5.60;85.50;;;;;;5074078;28;20298;-68
2021/03/08 04:54:55;;;;;;;9.57;2.67;;;5.50;85.40;;;;;;5074641;28;20663;-69
2021/03/08 04:57:22;;;;;;;11.53;2.80;;;5.60;85.40;;;;;;5074344;28;20443;-68
2021/03/08 04:59:49;;;;;;;13.77;3.13;;;5.60;85.60;;;;;;5073814;28;20337;-68
2021/03/08 05:02:18;;;;;;;19.80;3.63;;;5.60;85.50;;;;;;5074492;28;20330;-68
2021/03/08 05:04:47;;;;;;;11.87;2.97;;;5.60;85.50;;;;;;5073992;28;20298;-68
2021/03/08 05:07:19;;;;;;;8.90;2.90;;;5.50;85.40;;;;;;5074270;28;20786;-68
2021/03/08 05:09:45;;;;;;;;;;;5.40;86.50;;;;;;5074912;28;20303;-68
2021/03/08 05:12:12;;;;;;;17.60;3.50;;;5.40;86.00;;;;;;5073527;28;20019;-68
2021/03/08 05:14:39;;;;;;;14.03;3.23;;;5.40;85.80;;;;;;5074309;28;20838;-68
2021/03/08 05:17:05;;;;;;;8.87;3.20;;;5.40;85.80;;;;;;5074165;28;20678;-68
2021/03/08 05:19:34;;;;;;;12.27;4.37;;;5.40;85.80;;;;;;5073573;28;20302;-68
2021/03/08 05:22:00;;;;;;;11.57;3.30;;;5.50;85.80;;;;;;5074203;28;20302;-68
2021/03/08 05:24:27;;;;;;;14.80;3.20;;;5.40;85.70;;;;;;5073846;28;20911;-68
2021/03/08 05:26:53;;;;;;;12.93;3.30;;;5.40;85.70;;;;;;5073372;28;20291;-68
2021/03/08 05:29:19;;;;;;;15.53;3.30;;;5.40;85.70;;;;;;5073801;28;20325;-67
2021/03/08 05:31:47;;;;;;;10.67;3.03;;;5.50;85.90;;;;;;5073844;28;20555;-68
2021/03/08 05:34:17;;;;;;;13.73;3.53;;;5.50;85.70;;;;;;5072968;28;20310;-68
2021/03/08 05:36:46;;;;;;;12.77;3.40;;;5.50;85.60;;;;;;5073942;28;20314;-67
2021/03/08 05:39:13;;;;;;;9.23;2.73;;;5.40;85.50;;;;;;5073613;28;20313;-68
2021/03/08 05:41:55;;;;;;;14.77;3.17;;;5.40;85.60;;;;;;5072875;28;20356;-67
2021/03/08 05:44:27;;;;;;;13.53;3.50;;;5.40;85.80;;;;;;5073568;28;20286;-69
2021/03/08 05:46:53;;;;;;;9.90;3.57;;;5.40;85.90;;;;;;5073745;28;20305;-67
2021/03/08 05:49:32;;;;;;;11.57;3.90;;;5.30;86.00;;;;;;5072777;28;20740;-67
2021/03/08 05:52:19;;;;;;;13.47;3.40;;;5.30;86.00;;;;;;5073362;28;20126;-68
2021/03/08 05:55:17;;;;;;;11.40;3.13;;;5.20;86.30;;;;;;5072634;28;20306;-67
2021/03/08 05:58:06;;;;;;;13.80;3.20;;;5.20;86.20;;;;;;5073521;28;20321;-68
2021/03/08 06:00:52;;;;;;;17.07;4.37;;;5.20;86.30;;;;;;5073652;28;20299;-68
2021/03/08 06:04:00;;;;;;;14.53;3.70;;;5.20;86.40;;;;;;5072282;28;20299;-68
2021/03/08 06:06:47;;;;;;;12.07;4.37;;;5.20;86.40;;;;;;5073207;28;20356;-68
2021/03/08 06:09:25;;;;;;;12.70;4.13;;;5.20;86.30;;;;;;5072468;28;20360;-68
2021/03/08 06:12:15;;;;;;;11.63;4.50;;;5.20;86.30;;;;;;5073318;28;20747;-68
2021/03/08 06:14:46;;;;;;;13.70;5.40;;;5.20;86.20;;;;;;5072697;28;20310;-68
2021/03/08 06:17:16;;;;;;;10.50;3.97;;;5.30;86.30;;;;;;5072167;28;20352;-68
2021/03/08 06:19:43;;;;;;;11.60;4.23;;;5.20;86.10;;;;;;5072777;28;20376;-68
2021/03/08 06:22:11;;;;;;;10.67;3.67;;;5.20;86.40;;;;;;5071928;28;20710;-68
2021/03/08 06:24:40;;;;;;;9.57;3.60;;;5.20;86.30;;;;;;5073191;28;20340;-68
2021/03/08 06:27:13;;;;;;;12.87;3.90;;;5.20;86.30;;;;;;5072936;28;20294;-68
2021/03/08 06:29:41;;;;;;;15.50;4.60;;;5.20;86.30;;;;;;5072154;28;20386;-68
2021/03/08 06:32:08;;;;;;;8.27;3.93;;;5.30;86.30;;;;;;5072574;28;20447;-68
2021/03/08 06:34:34;;;;;;;11.90;4.10;;;5.30;87.30;;;;;;5072748;28;20805;-68
2021/03/08 06:37:06;;;;;;;14.03;3.70;;;5.30;86.30;;;;;;5071853;28;20820;-68
2021/03/08 06:39:36;;;;;;;11.30;4.20;;;5.30;86.20;;;;;;5072731;28;20319;-68
2021/03/08 06:42:03;;;;;;;15.43;4.03;;;5.40;86.20;;;;;;5072332;28;20060;-68
2021/03/08 06:44:30;;;;;;;14.90;3.90;;;5.40;86.20;;;;;;5071871;28;20378;-68
2021/03/08 06:46:56;;;;;;;14.37;3.70;;;5.40;86.30;;;;;;5072168;28;20301;-68
2021/03/08 06:49:22;;;;;;;16.27;5.13;;;5.40;86.20;;;;;;5072259;28;20666;-68
2021/03/08 06:52:08;;;;;;;10.37;3.60;;;5.50;86.00;;;;;;5071674;28;20313;-68
2021/03/08 06:54:41;;;;;;;14.23;4.20;;;5.50;85.90;;;;;;5072333;28;20059;-68
2021/03/08 06:57:31;;;;;;;18.87;4.00;;;5.50;85.80;;;;;;5072193;28;20305;-68
2021/03/08 07:00:06;;;;;;;9.90;3.10;;;5.60;85.50;;;;;;5072323;28;20294;-69
2021/03/08 07:02:42;;;;;;;10.20;2.97;;;5.60;85.20;;;;;;5071987;28;20305;-69
2021/03/08 07:05:10;;;;;;;14.60;3.80;;;5.70;85.20;;;;;;5071367;28;20787;-70
2021/03/08 07:07:53;;;;;;;8.80;3.27;;;5.70;85.20;;;;;;5072285;28;20344;-69
2021/03/08 07:10:31;;;;;;;16.87;4.50;;;5.70;85.10;;;;;;5071828;28;20611;-69
2021/03/08 07:12:57;;;;;;;8.47;2.83;;;5.80;85.50;;;;;;5071186;28;20338;-69
2021/03/08 07:15:22;;;;;;;11.87;3.87;;;5.80;85.90;;;;;;5071472;28;20347;-69
2021/03/08 07:17:48;;;;;;;15.53;4.93;;;5.90;85.80;;;;;;5071577;28;20051;-69
2021/03/08 07:20:16;;;;;;;13.27;4.10;;;6.20;85.60;;;;;;5070947;28;20051;-68
2021/03/08 07:22:53;;;;;;;10.23;3.33;;;6.50;85.30;;;;;;5071771;28;20055;-69
2021/03/08 07:25:30;;;;;;;14.97;3.63;;;6.80;84.40;;;;;;5071492;28;20798;-68
2021/03/08 07:28:04;;;;;;;12.53;3.43;;;7.00;83.80;;;;;;5071530;28;20394;-69
2021/03/08 07:30:29;;;;;;;14.53;3.60;;;7.00;82.70;;;;;;5071863;28;20370;-69
2021/03/08 07:33:03;;;;;;;13.17;3.20;;;6.90;82.10;;;;;;5071247;28;20370;-69
2021/03/08 07:35:33;;;;;;;14.30;3.83;;;6.70;81.90;;;;;;5071738;28;20052;-69
2021/03/08 07:38:00;;;;;;;11.68;3.78;;;6.70;82.40;;;;;;5071154;28;20303;-69
2021/03/08 07:40:26;;;;;;;11.93;4.33;;;6.60;82.60;;;;;;5070547;28;20115;-69
2021/03/08 07:42:52;;;;;;;13.53;4.10;;;6.70;82.50;;;;;;5071322;28;20048;-68
2021/03/08 07:45:19;;;;;;;17.13;6.20;;;6.60;82.60;;;;;;5071345;28;20059;-68
2021/03/08 07:47:45;;;;;;;13.93;5.07;;;6.60;82.70;;;;;;5070882;28;20294;-68
2021/03/08 07:50:28;;;;;;;13.50;4.40;;;6.50;83.10;;;;;;5071125;28;20791;-69
2021/03/08 07:52:58;;;;;;;14.00;5.27;;;6.60;82.90;;;;;;5071390;28;20364;-69
2021/03/08 07:55:41;;;;;;;15.83;4.90;;;6.70;82.20;;;;;;5070362;28;20856;-69
2021/03/08 07:58:08;;;;;;;10.73;4.83;;;6.80;81.00;;;;;;5071620;28;20291;-69
2021/03/08 08:00:33;;;;;;;20.13;5.30;;;6.80;81.10;;;;;;5070956;28;20688;-69
2021/03/08 08:02:59;;;;;;;13.87;4.83;;;6.80;80.80;;;;;;5071057;28;20389;-68
2021/03/08 08:05:25;;;;;;;13.20;3.77;;;6.80;80.40;;;;;;5071254;28;20048;-69
2021/03/08 08:07:55;;;;;;;15.83;3.90;;;6.70;80.00;;;;;;5070503;28;20298;-69
2021/03/08 08:10:22;;;;;;;12.53;4.30;;;6.40;79.60;;;;;;5071033;28;20323;-69
2021/03/08 08:12:48;;;;;;;16.83;4.60;;;6.20;80.40;;;;;;5071387;28;20402;-69
2021/03/08 08:15:17;;;;;;;11.03;3.43;;;6.20;80.80;;;;;;5071513;28;20310;-68
2021/03/08 08:17:47;;;;;;;13.40;3.93;;;6.30;81.00;;;;;;5075241;28;20302;-69
2021/03/08 08:20:14;;;;;;;15.43;3.73;;;6.50;80.60;;;;;;5075369;28;20331;-69
2021/03/08 08:22:58;;;;;;;17.80;4.47;;;6.70;79.40;;;;;;5074381;28;20349;-69
2021/03/08 08:25:27;;;;;;;12.40;3.73;;;6.70;78.20;;;;;;5075288;28;20329;-69
2021/03/08 08:27:53;;;;;;;15.10;4.13;;;6.50;78.10;;;;;;5075316;28;20302;-75
2021/03/08 08:30:24;;;;;;;9.33;3.10;;;6.50;78.10;;;;;;5074489;28;20356;-74
2021/03/08 08:32:55;;;;;;;14.73;4.63;;;6.80;77.90;;;;;;5074756;28;20317;-73
2021/03/08 08:35:29;;;;;;;15.30;3.60;;;7.20;76.50;;;;;;5074822;28;20325;-72
2021/03/08 08:38:07;;;;;;;12.43;2.73;;;7.40;75.30;;;;;;5073935;28;20127;-73
2021/03/08 08:40:38;;;;;;;10.83;2.97;;;7.70;75.40;;;;;;5075297;28;20389;-72
2021/03/08 08:43:16;;;;;;;14.30;3.30;;;8.30;74.50;;;;;;5074122;28;20298;-72
2021/03/08 08:45:47;;;;;;;16.17;3.53;;;8.80;71.80;;;;;;5074745;28;20311;-73
2021/03/08 08:48:13;;;;;;;;;;;9.10;71.60;;;;;;5075313;28;20303;-72
2021/03/08 08:50:51;;;;;;;14.47;2.70;;;9.30;69.30;;;;;;5074171;28;19928;-72
2021/03/08 08:53:35;;;;;;;13.40;3.23;;;9.30;70.00;;;;;;5074660;28;20052;-73
2021/03/08 08:56:01;;;;;;;12.20;3.33;;;9.20;69.20;;;;;;5074405;28;20397;-72
2021/03/08 08:58:34;;;;;;;16.37;3.80;;;9.10;69.70;;;;;;5073992;28;20299;-72
2021/03/08 09:01:36;;;;;;;11.97;3.40;;;9.10;68.20;;;;;;5074674;28;20056;-72
2021/03/08 09:04:15;;;;;;;12.90;3.33;;;9.20;67.20;;;;;;5073629;28;20314;-73
2021/03/08 09:06:43;;;;;;;14.13;3.67;;;9.30;67.80;;;;;;5074326;28;20303;-73
2021/03/08 09:09:16;;;;;;;12.90;3.37;;;9.20;68.10;;;;;;5074537;28;20048;-72
2021/03/08 09:11:44;;;;;;;10.67;3.03;;;8.90;67.80;;;;;;5073674;28;20438;-73
2021/03/08 09:14:34;;;;;;;14.87;3.13;;;8.70;67.60;;;;;;5074296;28;20306;-72
2021/03/08 09:17:11;;;;;;;13.63;3.17;;;8.40;68.00;;;;;;5074016;28;20818;-72
2021/03/08 09:19:38;;;;;;;15.03;4.13;;;8.30;67.20;;;;;;5073910;28;20311;-74
2021/03/08 09:22:23;;;;;;;16.90;3.47;;;8.20;68.60;;;;;;5073995;28;20338;-73
2021/03/08 09:24:54;;;;;;;11.27;3.00;;;8.10;69.30;;;;;;5074005;28;20302;-72
2021/03/08 09:27:28;;;;;;;15.57;3.63;;;8.30;68.30;;;;;;5072565;28;20351;-75
2021/03/08 09:30:00;;;;;;;10.97;2.77;;;8.30;68.00;;;;;;5074256;28;20291;-74
2021/03/08 09:32:26;;;;;;;14.13;3.90;;;8.20;67.60;;;;;;5073116;28;20295;-74
2021/03/08 09:34:52;;;;;;;11.60;4.13;;;8.00;68.30;;;;;;5073803;28;20313;-73
2021/03/08 09:37:19;;;;;;;13.97;3.37;;;7.90;68.50;;;;;;5073946;28;20433;-74
2021/03/08 09:39:48;;;;;;;10.20;2.77;;;8.00;68.70;;;;;;5072871;28;20131;-73
2021/03/08 09:42:14;;;;;;;10.40;2.50;;;8.10;67.90;;;;;;5073754;28;20302;-73
2021/03/08 09:44:47;;;;;;;15.13;3.40;;;8.20;68.20;;;;;;5073748;28;20306;-74
2021/03/08 09:47:13;;;;;;;12.67;3.03;;;8.20;68.00;;;;;;5073049;28;20313;-73
2021/03/08 09:49:50;;;;;;;11.70;3.10;;;8.10;67.60;;;;;;5073498;28;20799;-73
2021/03/08 09:52:41;;;;;;;10.70;3.03;;;8.10;67.30;;;;;;5073338;28;20045;-73
2021/03/08 09:55:10;;;;;;;9.32;3.10;;;8.10;66.60;;;;;;5072874;28;20448;-73
2021/03/08 09:57:38;;;;;;;14.23;3.37;;;8.00;66.70;;;;;;5073961;28;20048;-73
2021/03/08 10:00:05;;;;;;;15.43;4.30;;;7.90;66.50;;;;;;5073386;28;20298;-72
2021/03/08 10:02:31;;;;;;;15.10;3.30;;;7.80;66.60;;;;;;5073058;28;20658;-73
2021/03/08 10:04:57;;;;;;;11.77;3.23;;;7.70;66.60;;;;;;5073284;28;20381;-72
2021/03/08 10:07:24;;;;;;;12.53;3.23;;;7.60;66.20;;;;;;5072396;28;20060;-72
2021/03/08 10:10:06;;;;;;;11.53;2.80;;;7.50;66.60;;;;;;5073301;28;20295;-73
2021/03/08 10:12:32;;;;;;;10.73;2.97;;;7.50;66.70;;;;;;5073392;28;20298;-72
2021/03/08 10:14:59;;;;;;;12.27;3.00;;;7.50;67.20;;;;;;5072146;28;20314;-73
2021/03/08 10:17:25;;;;;;;12.57;2.80;;;7.50;67.30;;;;;;5072570;28;20087;-72
2021/03/08 10:19:59;;;;;;;15.40;3.23;;;7.60;66.50;;;;;;5073139;28;20323;-73
2021/03/08 10:22:38;;;;;;;12.80;3.83;;;7.50;65.90;;;;;;5072286;28;20091;-73
2021/03/08 10:25:27;;;;;;;13.77;3.43;;;7.40;66.20;;;;;;5072959;28;20303;-72
2021/03/08 10:28:01;;;;;;;9.33;3.13;;;7.50;65.90;;;;;;5072598;28;20329;-72
2021/03/08 10:30:28;;;;;;;7.30;2.20;;;7.40;65.20;;;;;;5072244;28;20432;-73
2021/03/08 10:33:02;;;;;;;6.67;3.13;;;7.30;64.50;;;;;;5072295;28;20795;-73
2021/03/08 10:35:37;;;;;;;12.17;3.40;;;7.10;64.00;;;;;;5072392;28;20353;-74
2021/03/08 10:38:04;;;;;;;14.40;3.10;;;7.10;64.50;;;;;;5071316;28;20377;-74
2021/03/08 10:40:30;;;;;;;7.50;2.53;;;7.20;65.70;;;;;;5072794;28;20759;-74
2021/03/08 10:42:58;;;;;;;10.17;3.30;;;7.30;65.50;;;;;;5071971;28;20298;-74
2021/03/08 10:45:26;;;;;;;13.10;3.43;;;7.40;65.10;;;;;;5072540;28;20295;-72
2021/03/08 10:48:08;;;;;;;11.43;3.67;;;7.30;64.80;;;;;;5072192;28;20825;-71
2021/03/08 10:50:51;;;;;;;15.73;3.00;;;7.20;64.90;;;;;;5071739;28;20344;-73
2021/03/08 10:53:22;;;;;;;10.50;2.77;;;7.30;65.90;;;;;;5072274;28;20291;-73
2021/03/08 10:55:49;;;;;;;8.83;2.30;;;7.30;65.30;;;;;;5072270;28;20390;-72
2021/03/08 10:58:15;;;;;;;10.33;2.37;;;7.40;64.60;;;;;;5071606;28;20708;-73
2021/03/08 11:00:43;;;;;;;10.20;2.40;;;7.30;65.70;;;;;;5071847;28;20852;-74
2021/03/08 11:03:37;;;;;;;14.70;3.13;;;7.30;65.20;;;;;;5071688;28;20294;-73
2021/03/08 11:06:08;;;;;;;10.30;2.67;;;7.40;64.30;;;;;;5071964;28;20302;-73
2021/03/08 11:08:37;;;;;;;11.43;3.33;;;7.50;65.40;;;;;;5072241;28;20307;-71
2021/03/08 11:11:20;;;;;;;8.73;2.30;;;7.70;65.30;;;;;;5070855;28;20813;-74
2021/03/08 11:13:47;;;;;;;9.47;2.77;;;7.80;65.00;;;;;;5071707;28;20789;-73
2021/03/08 11:16:14;;;;;;;7.03;2.27;;;8.00;65.00;;;;;;5071859;28;20333;-72
2021/03/08 11:18:41;;;;;;;12.63;3.53;;;8.00;65.10;;;;;;5071306;28;20301;-72
2021/03/08 11:21:31;;;;;;;12.10;2.83;;;8.10;65.00;;;;;;5071884;28;20299;-73
2021/03/08 11:24:15;;;;;;;6.83;2.20;;;8.10;64.30;;;;;;5071685;28;20298;-74
2021/03/08 11:26:42;;;;;;;11.53;3.23;;;8.10;64.00;;;;;;5071145;28;20294;-73
2021/03/08 11:29:24;;;;;;;10.30;3.63;;;8.20;64.30;;;;;;5071827;28;20299;-73
2021/03/08 11:31:54;;;;;;;7.13;2.40;;;8.30;64.80;;;;;;5070901;28;20293;-73
2021/03/08 11:34:39;;;;;;;13.40;2.90;;;8.50;65.10;;;;;;5071271;28;20338;-74
2021/03/08 11:37:25;;;;;;;15.47;2.77;;;8.90;64.30;;;;;;5071274;28;20382;-73
2021/03/08 11:39:54;;;;;;;10.40;2.67;;;9.20;63.10;;;;;;5070519;28;20655;-73
2021/03/08 11:42:23;;;;;;;12.00;2.90;;;9.40;62.70;;;;;;5071428;28;20325;-72
2021/03/08 11:44:49;;;;;;;7.83;2.20;;;9.70;62.10;;;;;;5071280;28;20352;-74
2021/03/08 11:47:14;;;;;;;10.00;2.30;;;9.80;61.60;;;;;;5070853;28;20044;-74
2021/03/08 11:49:41;;;;;;;10.83;2.77;;;9.70;62.50;;;;;;5071370;28;20214;-74
2021/03/08 11:52:08;;;;;;;10.77;2.73;;;9.60;60.80;;;;;;5071281;28;20090;-75
2021/03/08 11:54:34;;;;;;;7.17;2.40;;;9.50;61.60;;;;;;5070969;28;20328;-74
2021/03/08 11:57:01;;;;;;;10.17;2.70;;;9.30;62.40;;;;;;5071237;28;20317;-74
2021/03/08 11:59:28;;;;;;;7.27;2.80;;;9.30;63.40;;;;;;5071521;28;20305;-74
2021/03/08 12:01:54;;;;;;;8.50;2.90;;;9.30;63.20;;;;;;5070720;28;20299;-75
2021/03/08 12:04:20;;;;;;;9.60;2.37;;;9.30;63.50;;;;;;5071331;28;20299;-74
2021/03/08 12:06:45;;;;;;;11.87;3.10;;;9.30;63.00;;;;;;5070508;28;20082;-74
2021/03/08 12:09:11;;;;;;;11.13;2.47;;;9.30;63.40;;;;;;5071392;28;20045;-74
2021/03/08 12:11:37;;;;;;;7.93;2.10;;;9.40;62.70;;;;;;5071702;28;20445;-74
2021/03/08 12:14:02;;;;;;;10.87;3.93;;;9.50;62.80;;;;;;5070028;28;20052;-74
2021/03/08 12:16:28;;;;;;;8.50;2.47;;;9.70;62.10;;;;;;5071480;28;20090;-73
2021/03/08 12:18:54;;;;;;;8.63;2.23;;;9.80;62.90;;;;;;5070995;28;20056;-73
2021/03/08 12:21:20;;;;;;;10.47;2.80;;;9.90;61.80;;;;;;5070350;28;20049;-73
2021/03/08 12:23:46;;;;;;;10.73;2.83;;;10.00;61.50;;;;;;5071080;28;20049;-74
2021/03/08 12:26:14;;;;;;;10.53;2.53;;;10.10;61.40;;;;;;5071019;28;20052;-72
2021/03/08 12:28:39;;;;;;;9.57;2.00;;;10.20;61.30;;;;;;5070271;28;20057;-72
2021/03/08 12:31:06;;;;;;;9.77;2.70;;;10.20;62.00;;;;;;5071090;28;20048;-72
2021/03/08 12:33:33;;;;;;;5.97;1.97;;;10.20;60.90;;;;;;5070947;28;20060;-72
2021/03/08 12:36:01;;;;;;;8.57;2.77;;;10.20;60.60;;;;;;5070099;28;20478;-73
2021/03/08 12:38:27;;;;;;;7.27;2.50;;;10.20;60.70;;;;;;5071069;28;20053;-73
2021/03/08 12:40:52;;;;;;;10.13;3.00;;;10.20;60.70;;;;;;5070887;28;20070;-73
2021/03/08 12:43:19;;;;;;;6.53;2.60;;;10.20;60.80;;;;;;5069788;28;20408;-73
2021/03/08 12:45:45;;;;;;;10.77;3.40;;;10.20;60.70;;;;;;5070993;28;20455;-73
2021/03/08 12:48:11;;;;;;;8.63;2.90;;;10.20;60.80;;;;;;5070832;28;20052;-73
2021/03/08 12:50:37;;;;;;;7.70;2.60;;;10.20;60.60;;;;;;5070380;28;20044;-73
2021/03/08 12:53:02;;;;;;;9.67;3.20;;;10.20;60.60;;;;;;5070314;28;20072;-73
2021/03/08 12:55:28;;;;;;;12.93;2.60;;;10.20;60.80;;;;;;5070716;28;20045;-73
2021/03/08 12:57:54;;;;;;;10.40;2.90;;;10.20;61.90;;;;;;5069939;28;20481;-73
2021/03/08 13:00:19;;;;;;;5.70;2.70;;;10.20;60.40;;;;;;5070792;28;20045;-73
2021/03/08 13:02:45;;;;;;;9.00;3.63;;;10.10;60.00;;;;;;5074244;28;20076;-74